Time;durP1;ratioP1;P1;durP2;ratioP2;P2;SDS_P1;SDS_P2;PMS_P1;PMS_P2;Temp;Humidity;BMP_temperature;BMP_pressure;BME280_temperature;BME280_humidity;BME280_pressure;Samples;Min_cycle;Max_cycle;Signal;HPM_P1;HPM_P2
2022/10/07 00:01:04;;;;;;;10.57;2.90;;;;;;;9.36;56.72;101156.69;4993458;28;20059;-59
2022/10/07 00:03:57;;;;;;;7.80;2.30;;;;;;;9.65;55.81;101159.38;5022874;28;20049;-59
2022/10/07 00:06:39;;;;;;;10.63;2.33;;;;;;;9.89;55.41;101154.19;5022529;28;20064;-60
2022/10/07 00:09:15;;;;;;;8.00;2.13;;;;;;;10.04;52.77;101157.69;5022830;28;20072;-59
2022/10/07 00:12:05;;;;;;;16.13;2.90;;;;;;;10.23;52.94;101154.16;5022573;28;20122;-60
2022/10/07 00:14:54;;;;;;;5.15;2.13;;;;;;;10.40;51.70;101140.25;5022848;28;20069;-60
2022/10/07 00:17:46;;;;;;;8.75;1.92;;;;;;;10.58;51.52;101134.97;5046190;28;20056;-60
2022/10/07 00:20:29;;;;;;;7.90;1.98;;;;;;;10.76;49.74;101129.72;5048893;28;20071;-59
2022/10/07 00:23:08;;;;;;;5.43;2.05;;;;;;;11.01;50.14;101129.63;5083319;28;20048;-60
2022/10/07 00:25:45;;;;;;;7.68;2.60;;;;;;;11.08;47.81;101136.53;5083814;28;20044;-60
2022/10/07 00:28:30;;;;;;;5.07;1.70;;;;;;;10.49;44.65;101091.47;5083605;28;20366;-60
2022/10/07 00:31:17;;;;;;;3.80;1.40;;;;;;;9.93;44.56;101082.84;5083891;28;20041;-61
2022/10/07 00:34:04;;;;;;;3.85;1.80;;;;;;;9.98;48.31;101126.31;5083408;28;20257;-59
2022/10/07 00:36:59;;;;;;;4.75;1.80;;;;;;;10.25;48.97;101126.31;5083442;28;20051;-60
2022/10/07 00:39:57;;;;;;;5.35;1.60;;;;;;;10.25;47.27;101121.09;5084213;28;20052;-60
2022/10/07 00:42:38;;;;;;;3.58;1.60;;;;;;;9.86;47.33;101112.41;5083845;28;20116;-61
2022/10/07 00:45:30;;;;;;;4.93;1.90;;;;;;;9.91;48.05;101112.44;5049009;28;20044;-60
2022/10/07 00:48:38;;;;;;;5.28;1.60;;;;;;;9.64;44.55;101115.88;5083856;28;20067;-59
2022/10/07 00:51:33;;;;;;;3.28;1.30;;;;;;;9.41;45.15;101113.22;5067772;28;20040;-60
2022/10/07 00:54:48;;;;;;;4.55;1.60;;;;;;;9.45;46.68;101121.06;5083406;28;20311;-60
2022/10/07 00:57:37;;;;;;;4.55;1.10;;;;;;;9.50;45.61;101108.88;5065310;28;20091;-60
2022/10/07 01:00:10;;;;;;;5.32;1.23;;;;;;;9.62;45.82;101112.41;5083339;28;20067;-60
2022/10/07 01:02:57;;;;;;;9.07;2.90;;;;;;;9.52;42.99;101110.66;5102937;28;20059;-60
2022/10/07 01:05:49;;;;;;;4.35;1.38;;;;;;;9.46;46.41;101107.16;5085821;28;20306;-59
2022/10/07 01:08:31;;;;;;;3.80;0.85;;;;;;;9.24;46.48;101068.88;5054103;28;20063;-60
2022/10/07 01:11:23;;;;;;;2.33;0.70;;;;;;;9.50;47.05;101106.28;5102913;28;20048;-60
2022/10/07 01:14:35;;;;;;;0.73;0.65;;;;;;;9.83;46.45;101112.41;5102638;28;20044;-60
2022/10/07 01:17:32;;;;;;;1.77;0.75;;;;;;;9.85;43.25;101105.44;5102751;28;20062;-60
2022/10/07 01:20:44;;;;;;;0.80;0.80;;;;;;;9.54;41.84;101115.00;5104018;28;20040;-60
2022/10/07 01:24:04;;;;;;;2.33;0.70;;;;;;;9.26;42.17;101119.25;5103566;28;20214;-60
2022/10/07 01:26:59;;;;;;;2.67;0.65;;;;;;;9.07;43.18;101108.78;5101756;28;20064;-60
2022/10/07 01:29:54;;;;;;;7.13;1.02;;;;;;;8.84;43.98;101084.41;5103564;28;20098;-59
2022/10/07 01:32:35;;;;;;;3.33;1.08;;;;;;;8.98;45.55;101107.88;5103550;28;20048;-60
2022/10/07 01:35:21;;;;;;;0.88;0.60;;;;;;;8.99;43.97;101099.22;5103725;28;20044;-61
2022/10/07 01:38:16;;;;;;;1.65;0.73;;;;;;;9.05;45.23;101105.31;5103173;28;20056;-59
2022/10/07 01:44:18;;;;;;;1.77;0.77;;;;;;;9.75;43.74;101103.69;5081335;28;20068;-60
2022/10/07 01:47:07;;;;;;;3.60;0.77;;;;;;;9.92;45.97;101085.44;5081476;28;20060;-60
2022/10/07 01:50:01;;;;;;;2.25;1.00;;;;;;;9.83;42.87;101096.72;5031474;28;20349;-59
2022/10/07 01:56:10;;;;;;;1.13;0.50;;;;;;;10.65;41.96;101094.88;5084914;28;20048;-60
2022/10/07 01:59:07;;;;;;;1.90;0.70;;;;;;;11.12;41.02;101091.19;5084215;28;20048;-60
2022/10/07 02:02:44;;;;;;;1.23;0.70;;;;;;;11.71;40.07;101081.22;5083687;28;20231;-60
2022/10/07 02:05:38;;;;;;;7.53;0.70;;;;;;;11.46;38.02;101083.16;5083984;28;20086;-60
2022/10/07 02:08:45;;;;;;;1.27;0.68;;;;;;;10.90;36.59;101021.59;5064538;28;20418;-61
2022/10/07 02:11:27;;;;;;;3.60;0.68;;;;;;;10.94;37.54;101083.47;5079152;28;20298;-60
2022/10/07 02:14:17;;;;;;;1.88;0.60;;;;;;;10.63;40.09;101075.72;5084253;28;20054;-61
2022/10/07 02:17:20;;;;;;;1.95;0.80;;;;;;;10.83;40.00;101085.25;5057071;28;20070;-60
2022/10/07 02:19:55;;;;;;;3.60;0.70;;;;;;;10.97;40.11;101028.53;5084785;28;20108;-61
2022/10/07 02:22:46;;;;;;;0.85;0.60;;;;;;;11.69;40.06;101087.34;5106149;28;20082;-59
2022/10/07 02:25:35;;;;;;;2.10;0.75;;;;;;;11.73;39.91;101089.94;5106960;28;20090;-60
2022/10/07 02:28:23;;;;;;;;;;;;;;;11.70;39.26;101094.31;5105573;28;20060;-60
2022/10/07 02:31:05;;;;;;;1.27;0.60;;;;;;;11.70;39.72;101096.94;5105810;28;20101;-60
2022/10/07 02:33:42;;;;;;;1.98;0.65;;;;;;;11.31;37.70;101104.19;5106478;28;20130;-60
2022/10/07 02:36:34;;;;;;;1.40;0.70;;;;;;;10.67;38.63;101056.56;5104436;28;20052;-61
2022/10/07 02:39:19;;;;;;;2.15;0.60;;;;;;;10.80;39.74;101094.81;5091073;28;20059;-60
2022/10/07 02:42:05;;;;;;;2.05;0.80;;;;;;;10.68;38.37;101105.31;5106068;28;20051;-61
2022/10/07 02:45:02;;;;;;;1.67;0.70;;;;;;;10.65;37.96;101094.03;5105016;28;20075;-60
2022/10/07 02:48:05;;;;;;;2.70;1.02;;;;;;;10.65;39.41;101094.03;5090991;28;20095;-60
2022/10/07 02:53:59;;;;;;;2.45;0.68;;;;;;;10.43;36.34;101098.44;5102495;28;20044;-61
2022/10/07 02:56:45;;;;;;;3.33;0.68;;;;;;;10.21;38.27;101093.25;5067813;28;20186;-60
2022/10/07 02:59:27;;;;;;;2.45;0.70;;;;;;;10.08;37.88;101101.94;5105581;28;20357;-61
2022/10/07 03:02:06;;;;;;;1.63;0.60;;;;;;;9.98;38.93;101102.81;5082100;28;20085;-62
2022/10/07 03:04:46;;;;;;;0.98;0.65;;;;;;;10.03;38.15;101108.91;5101598;28;20316;-61
2022/10/07 03:07:24;;;;;;;5.32;0.90;;;;;;;10.58;38.70;101093.16;5102427;28;20055;-60
2022/10/07 03:10:00;;;;;;;8.55;0.80;;;;;;;11.14;37.15;101084.22;5104276;28;20075;-61
2022/10/07 03:15:41;;;;;;;1.20;0.50;;;;;;;10.73;35.27;101077.47;5103435;28;20044;-61
2022/10/07 03:24:03;;;;;;;0.70;0.60;;;;;;;10.27;35.74;101081.91;5086059;28;20036;-62
2022/10/07 03:26:59;;;;;;;0.57;0.57;;;;;;;10.18;36.23;101093.22;5086688;28;20052;-61
2022/10/07 03:29:49;;;;;;;10.70;1.50;;;;;;;10.12;37.59;101088.03;5104308;28;20062;-62
2022/10/07 03:32:42;;;;;;;6.97;1.48;;;;;;;10.13;37.97;101079.31;5101529;28;20119;-61
2022/10/07 03:35:26;;;;;;;4.75;0.80;;;;;;;10.19;37.28;101079.31;5076760;28;20044;-60
2022/10/07 03:38:09;;;;;;;6.25;1.10;;;;;;;10.27;38.93;101088.00;5104301;28;20052;-59
2022/10/07 03:40:50;;;;;;;2.13;0.80;;;;;;;10.17;37.05;101085.41;5085927;28;20071;-60
2022/10/07 03:43:33;;;;;;;1.50;0.90;;;;;;;10.13;38.39;101089.75;5104869;28;20069;-60
2022/10/07 03:46:33;;;;;;;4.82;1.17;;;;;;;10.14;39.21;101081.06;5086450;28;20071;-60
2022/10/07 03:49:20;;;;;;;9.73;1.13;;;;;;;10.18;38.83;101082.78;5074937;28;20055;-61
2022/10/07 03:52:05;;;;;;;2.90;1.05;;;;;;;10.08;36.72;101091.50;5076515;28;20056;-62
2022/10/07 03:54:56;;;;;;;1.75;1.17;;;;;;;9.83;39.42;101054.97;5099835;28;20047;-62
2022/10/07 03:57:56;;;;;;;7.80;1.13;;;;;;;10.11;41.36;101091.53;5091460;28;20048;-62
2022/10/07 04:00:50;;;;;;;5.78;1.23;;;;;;;9.90;38.93;101067.16;5101254;28;20063;-63
2022/10/07 04:04:14;;;;;;;7.63;1.67;;;;;;;10.08;40.42;101086.28;5101675;28;20036;-63
2022/10/07 04:07:23;;;;;;;6.15;1.60;;;;;;;10.03;40.77;101095.84;5100692;28;20060;-62
2022/10/07 04:13:14;;;;;;;13.02;1.50;;;;;;;9.83;39.82;101086.28;5081285;28;20051;-61
2022/10/07 04:16:03;;;;;;;4.20;1.23;;;;;;;9.92;40.55;101101.97;5100280;28;20592;-61
2022/10/07 04:26:04;;;;;;;4.47;1.30;;;;;;;9.40;38.88;101128.00;4987719;28;20054;-61
2022/10/07 04:28:50;;;;;;;2.88;0.85;;;;;;;9.15;39.88;101131.41;4988914;28;20287;-62
2022/10/07 04:31:34;;;;;;;7.57;1.10;;;;;;;8.96;41.30;101131.34;4986668;28;20060;-62
2022/10/07 04:34:27;;;;;;;4.05;0.93;;;;;;;8.85;41.68;101117.41;4987143;28;20078;-62
2022/10/07 04:37:22;;;;;;;4.65;1.25;;;;;;;8.97;41.98;101127.88;4989468;28;20327;-62
2022/10/07 04:40:12;;;;;;;4.32;1.00;;;;;;;9.09;42.67;101123.59;4988167;28;20046;-62
2022/10/07 04:45:54;;;;;;;14.85;1.17;;;;;;;9.32;41.67;101114.09;4987144;28;20072;-63
2022/10/07 04:48:35;;;;;;;5.15;1.00;;;;;;;9.37;42.78;101112.34;4987943;28;20051;-61
2022/10/07 04:51:15;;;;;;;3.85;1.10;;;;;;;9.42;42.93;101115.84;4987102;28;20121;-61
2022/10/07 04:54:05;;;;;;;6.32;1.25;;;;;;;9.36;42.96;101094.97;4986868;28;20050;-61
2022/10/07 04:56:55;;;;;;;2.08;0.80;;;;;;;9.49;43.13;101107.16;4986759;28;20057;-62
2022/10/07 04:59:56;;;;;;;6.15;1.67;;;;;;;9.53;42.49;101108.03;4945304;28;20072;-61
2022/10/07 05:02:43;;;;;;;4.75;1.88;;;;;;;9.48;43.33;101095.00;4987713;28;20053;-61
2022/10/07 05:05:31;;;;;;;4.15;1.15;;;;;;;9.48;42.70;101097.59;4957524;28;20081;-62
2022/10/07 05:08:25;;;;;;;5.95;1.15;;;;;;;9.62;42.34;101092.38;4986503;28;20085;-61
2022/10/07 05:11:19;;;;;;;0.90;0.88;;;;;;;9.67;42.36;101100.22;4944176;28;20043;-62
2022/10/07 05:13:57;;;;;;;4.82;1.00;;;;;;;9.73;43.54;101105.44;4987056;28;20078;-62
2022/10/07 05:16:52;;;;;;;4.68;1.00;;;;;;;9.71;42.83;101096.75;4987425;28;20038;-61
2022/10/07 05:22:40;;;;;;;4.43;1.33;;;;;;;9.62;43.51;101091.53;4942653;28;20113;-61
2022/10/07 05:25:25;;;;;;;2.42;0.80;;;;;;;9.68;43.83;101101.94;4986957;28;20051;-61
2022/10/07 05:27:56;;;;;;;1.70;0.65;;;;;;;9.77;44.28;101107.19;4989771;28;20097;-61
2022/10/07 05:33:42;;;;;;;4.80;0.70;;;;;;;9.82;42.00;101105.44;4948113;28;20077;-60
2022/10/07 05:36:23;;;;;;;2.58;1.00;;;;;;;9.69;42.43;101098.50;4989972;28;20086;-61
2022/10/07 05:39:09;;;;;;;4.15;1.40;;;;;;;9.68;42.67;101091.50;4958636;28;20039;-60
2022/10/07 05:42:06;;;;;;;2.63;0.95;;;;;;;9.55;41.01;101095.00;4988626;28;20118;-61
2022/10/07 05:45:09;;;;;;;15.00;5.55;;;;;;;9.45;42.03;101089.75;4988920;28;20043;-61
2022/10/07 05:48:04;;;;;;;6.30;2.50;;;;;;;9.42;42.86;101089.75;4989247;28;20475;-61
2022/10/07 05:50:57;;;;;;;13.65;1.65;;;;;;;9.52;42.25;101084.56;4988395;28;20078;-61
2022/10/07 05:53:45;;;;;;;7.80;0.90;;;;;;;9.74;41.54;101082.84;4988194;28;20090;-62
2022/10/07 05:56:48;;;;;;;2.33;0.80;;;;;;;9.82;41.09;101088.91;5058490;28;20057;-62
2022/10/07 05:59:28;;;;;;;5.78;0.90;;;;;;;10.03;42.36;101088.03;5060314;28;20155;-61
2022/10/07 06:02:26;;;;;;;3.25;0.70;;;;;;;10.02;39.48;101070.63;5060346;28;20447;-61
2022/10/07 06:05:23;;;;;;;7.90;2.58;;;;;;;9.86;42.25;101033.22;5061219;28;20108;-61
2022/10/07 06:14:04;;;;;;;4.13;1.00;;;;;;;10.12;39.14;101072.34;5103007;28;20055;-61
2022/10/07 06:16:51;;;;;;;5.88;1.50;;;;;;;9.65;39.68;101021.06;5102578;28;20059;-61
2022/10/07 06:22:43;;;;;;;3.55;1.25;;;;;;;10.00;41.66;101088.91;5102156;28;20040;-61
2022/10/07 06:25:35;;;;;;;14.55;1.58;;;;;;;10.02;41.72;101096.75;5102760;28;20040;-61
2022/10/07 06:28:16;;;;;;;6.88;3.35;;;;;;;10.01;43.22;101105.44;5066211;28;20084;-61
2022/10/07 06:31:05;;;;;;;8.13;1.00;;;;;;;10.01;41.91;101105.44;5012378;28;20044;-61
2022/10/07 06:36:48;;;;;;;5.57;0.95;;;;;;;9.98;40.97;101114.13;5102343;28;20135;-60
2022/10/07 06:39:32;;;;;;;4.13;1.52;;;;;;;9.93;41.41;101114.16;5066986;28;20060;-61
2022/10/07 06:45:57;;;;;;;9.35;1.52;;;;;;;9.79;40.74;101121.13;5095069;28;20052;-63
2022/10/07 06:48:41;;;;;;;2.67;1.10;;;;;;;9.55;40.96;101089.78;5101928;28;20052;-61
2022/10/07 06:51:23;;;;;;;4.50;1.30;;;;;;;9.63;39.39;101124.56;5083727;28;20075;-61
2022/10/07 06:54:11;;;;;;;3.33;1.10;;;;;;;9.52;39.32;101141.97;5101742;28;20079;-61
2022/10/07 06:56:45;;;;;;;22.63;2.25;;;;;;;9.43;40.44;101142.78;5101588;28;20056;-61
2022/10/07 06:59:26;;;;;;;4.20;0.90;;;;;;;9.30;39.80;101144.50;5034575;28;20048;-63
2022/10/07 07:02:00;;;;;;;4.35;1.30;;;;;;;9.16;39.25;101149.69;5033140;28;20407;-62
2022/10/07 07:04:44;;;;;;;2.28;1.10;;;;;;;9.07;40.17;101145.28;5098620;28;20080;-62
2022/10/07 07:07:30;;;;;;;13.65;1.50;;;;;;;8.81;41.27;101132.16;5071384;28;20059;-62
2022/10/07 07:10:18;;;;;;;7.10;1.98;;;;;;;8.99;42.96;101159.19;5038546;28;20095;-62
2022/10/07 07:13:09;;;;;;;4.20;1.88;;;;;;;8.82;42.75;101153.88;5101894;28;20056;-62
2022/10/07 07:16:13;;;;;;;4.70;1.70;;;;;;;8.58;43.43;101142.44;5101880;28;20064;-62
2022/10/07 07:19:01;;;;;;;3.90;1.35;;;;;;;8.58;43.71;101157.19;5069055;28;20063;-61
2022/10/07 07:21:43;;;;;;;7.78;1.80;;;;;;;8.50;44.28;101151.94;5101551;28;20059;-62
2022/10/07 07:24:28;;;;;;;4.65;1.77;;;;;;;8.47;44.30;101172.78;5101212;28;20368;-62
2022/10/07 07:27:12;;;;;;;;;;;;;;;8.35;44.05;101173.50;5062981;28;20048;-62
2022/10/07 07:29:58;;;;;;;5.75;1.70;;;;;;;8.30;45.29;101184.75;5059922;28;19923;-62
2022/10/07 07:32:51;;;;;;;6.57;1.90;;;;;;;8.13;44.94;101171.59;5070309;28;20120;-62
2022/10/07 07:35:26;;;;;;;5.22;2.55;;;;;;;8.03;45.84;101177.59;5101424;28;20289;-62
2022/10/07 07:37:58;;;;;;;8.68;2.53;;;;;;;7.94;45.86;101181.00;5100910;28;20060;-62
2022/10/07 07:40:44;;;;;;;4.30;2.40;;;;;;;7.86;46.72;101177.44;5101320;28;20104;-62
2022/10/07 07:43:33;;;;;;;6.57;2.80;;;;;;;7.69;46.21;101185.97;5097317;28;20151;-62
2022/10/07 07:46:39;;;;;;;13.07;3.15;;;;;;;7.59;47.01;101181.53;5101142;28;20052;-62
2022/10/07 07:49:22;;;;;;;10.05;3.28;;;;;;;7.55;47.77;101192.75;5100040;28;20040;-62
2022/10/07 07:52:13;;;;;;;16.50;2.67;;;;;;;7.45;49.52;101196.09;5100914;28;20063;-62
2022/10/07 07:54:57;;;;;;;12.25;2.63;;;;;;;7.31;52.30;101196.81;5100135;28;20662;-62
2022/10/07 08:00:35;;;;;;;4.53;2.05;;;;;;;6.95;55.21;101209.34;5101006;28;20181;-62
2022/10/07 08:03:17;;;;;;;14.77;6.38;;;;;;;6.68;54.02;101210.69;5011702;28;20067;-61
2022/10/07 08:06:09;;;;;;;21.58;6.85;;;;;;;6.40;56.24;101205.09;5075745;28;20079;-61
2022/10/07 08:08:51;;;;;;;10.10;5.00;;;;;;;6.07;55.66;101194.16;5087357;28;20111;-61
2022/10/07 08:11:36;;;;;;;8.25;4.25;;;;;;;5.85;57.52;101224.88;5100760;28;20056;-61
2022/10/07 08:14:36;;;;;;;19.45;6.32;;;;;;;5.28;59.23;101205.63;5100714;28;20079;-61
2022/10/07 08:17:26;;;;;;;9.10;3.47;;;;;;;4.79;61.58;101198.53;5099281;28;20083;-61
2022/10/07 08:20:04;;;;;;;27.88;11.57;;;;;;;4.59;63.62;101232.59;5098797;28;20050;-61
2022/10/07 08:23:00;;;;;;;44.42;17.40;;;;;;;4.35;65.28;101234.63;5100407;28;20055;-61
2022/10/07 08:28:36;;;;;;;34.55;18.05;;;;;;;3.81;66.29;101228.94;5099230;28;20413;-60
2022/10/07 08:31:22;;;;;;;27.20;14.73;;;;;;;3.70;67.09;101245.88;5100285;28;20137;-61
2022/10/07 08:34:12;;;;;;;22.05;11.15;;;;;;;3.48;67.51;101243.53;5099959;28;20048;-61
2022/10/07 08:36:58;;;;;;;28.02;14.13;;;;;;;3.42;67.81;101258.03;5100220;28;20063;-61
2022/10/07 08:40:04;;;;;;;26.25;14.73;;;;;;;3.30;68.03;101260.25;5064328;28;20066;-61
2022/10/07 08:42:52;;;;;;;55.15;22.83;;;;;;;3.08;68.31;101242.38;5099715;28;20047;-60
2022/10/07 08:45:35;;;;;;;22.20;11.05;;;;;;;2.97;68.94;101253.25;5104004;28;20154;-61
2022/10/07 08:48:26;;;;;;;17.27;8.88;;;;;;;2.93;68.85;101268.59;5099510;28;20068;-61
2022/10/07 08:51:20;;;;;;;16.08;8.65;;;;;;;2.90;69.66;101279.72;5099049;28;20056;-61
2022/10/07 08:54:08;;;;;;;12.30;7.13;;;;;;;2.84;70.13;101287.25;5099372;28;20055;-60
2022/10/07 08:57:13;;;;;;;7.97;3.05;;;;;;;2.74;70.29;101285.22;5057170;28;20140;-61
2022/10/07 08:59:53;;;;;;;4.03;2.05;;;;;;;2.66;70.48;101300.44;5097360;28;20048;-62
2022/10/07 09:02:44;;;;;;;11.88;5.25;;;;;;;2.56;70.76;101298.41;5103889;28;20042;-62
2022/10/07 09:05:37;;;;;;;26.58;10.48;;;;;;;2.50;70.92;101313.69;5070955;28;20127;-61
2022/10/07 09:08:39;;;;;;;22.52;10.10;;;;;;;2.46;71.09;101312.69;5102947;28;20048;-61
2022/10/07 09:11:24;;;;;;;12.63;7.15;;;;;;;2.54;72.48;101318.97;5103884;28;20052;-61
2022/10/07 09:14:21;;;;;;;6.55;2.05;;;;;;;2.56;72.26;101319.03;5103496;28;20064;-61
2022/10/07 09:16:53;;;;;;;6.43;2.00;;;;;;;2.54;72.89;101326.72;5103192;28;20062;-60
2022/10/07 09:22:41;;;;;;;23.27;11.38;;;;;;;2.38;72.05;101330.50;5102223;28;20078;-61
2022/10/07 09:25:26;;;;;;;18.40;8.43;;;;;;;2.28;71.88;101332.72;5087795;28;20084;-61
2022/10/07 09:28:35;;;;;;;11.15;7.75;;;;;;;2.03;72.17;101303.50;5082036;28;20322;-60
2022/10/07 09:31:31;;;;;;;13.85;9.50;;;;;;;2.16;71.95;101344.34;5086660;28;20082;-60
2022/10/07 09:34:27;;;;;;;13.75;7.80;;;;;;;2.16;72.21;101351.22;5083593;28;20075;-60
2022/10/07 09:37:30;;;;;;;17.15;9.25;;;;;;;2.20;72.14;101350.50;5082437;28;20044;-61
2022/10/07 09:44:12;;;;;;;19.42;11.02;;;;;;;2.16;72.98;101364.97;4920136;28;20056;-61
2022/10/07 09:47:51;;;;;;;13.23;7.15;;;;;;;2.09;74.21;101347.53;4884920;28;20601;-61
2022/10/07 09:54:26;;;;;;;51.20;5.47;;;;;;;2.15;75.36;101383.00;4665504;29;20110;-61
2022/10/07 09:58:18;;;;;;;18.63;4.88;;;;;;;2.03;75.37;101378.25;4691622;29;20058;-61
2022/10/07 10:01:50;;;;;;;12.30;6.50;;;;;;;1.90;76.20;101360.59;4699885;29;20068;-61
2022/10/07 10:27:08;;;;;;;7.47;4.35;;;;;;;1.50;77.40;101392.63;4607761;30;20056;-61
2022/10/07 10:30:09;;;;;;;10.45;5.28;;;;;;;1.41;78.42;101389.66;4661939;29;20058;-61
2022/10/07 10:36:26;;;;;;;11.48;7.13;;;;;;;1.31;78.43;101397.84;4691146;29;20054;-61
2022/10/07 10:39:10;;;;;;;9.88;5.90;;;;;;;1.28;79.00;101399.50;4670388;29;20062;-61
2022/10/07 10:41:58;;;;;;;7.95;4.70;;;;;;;1.26;79.17;101383.09;4703655;29;20113;-61
2022/10/07 10:45:10;;;;;;;9.40;3.60;;;;;;;1.20;79.23;101390.59;4775953;28;20869;-61
2022/10/07 10:48:22;;;;;;;6.47;2.60;;;;;;;0.65;79.62;101298.31;4918764;28;20111;-61
2022/10/07 10:51:20;;;;;;;3.35;2.20;;;;;;;1.22;79.85;101399.25;4934958;28;20052;-61
2022/10/07 10:54:30;;;;;;;11.88;6.70;;;;;;;1.13;79.56;101405.75;4970613;28;20058;-61
2022/10/07 10:57:25;;;;;;;24.02;11.52;;;;;;;1.14;79.83;101395.47;4921823;28;20437;-61
2022/10/07 11:00:16;;;;;;;20.13;9.82;;;;;;;1.01;79.73;101377.81;4954017;28;20063;-61
2022/10/07 11:03:35;;;;;;;19.02;9.05;;;;;;;1.02;80.22;101382.13;4937663;28;20048;-61
2022/10/07 11:06:21;;;;;;;13.20;6.00;;;;;;;1.22;80.30;101399.25;4938422;28;20121;-61
2022/10/07 11:09:05;;;;;;;9.88;4.43;;;;;;;1.32;80.61;101390.19;4904861;28;20103;-61
2022/10/07 11:11:48;;;;;;;9.88;4.85;;;;;;;1.43;80.28;101398.34;4949888;28;20085;-61
2022/10/07 11:14:33;;;;;;;11.50;5.50;;;;;;;1.43;79.95;101399.22;4948770;28;20054;-61
2022/10/07 11:17:11;;;;;;;22.65;6.38;;;;;;;1.48;80.46;101401.97;4931843;28;20085;-61
2022/10/07 11:20:04;;;;;;;10.77;5.57;;;;;;;1.57;80.59;101406.59;4948125;28;20706;-61
2022/10/07 11:23:05;;;;;;;10.20;6.00;;;;;;;1.67;80.99;101409.59;4946433;28;20282;-61
2022/10/07 11:25:56;;;;;;;8.88;6.13;;;;;;;1.18;81.71;101309.84;4938186;28;20074;-61
2022/10/07 11:29:09;;;;;;;12.63;7.75;;;;;;;1.83;81.87;101415.31;4937903;28;20076;-61
2022/10/07 11:32:11;;;;;;;14.32;8.18;;;;;;;1.88;82.00;101408.63;4932280;28;20058;-62
2022/10/07 11:34:56;;;;;;;10.60;7.82;;;;;;;1.93;82.15;101407.09;4931602;28;20052;-62
2022/10/07 11:37:41;;;;;;;14.02;7.45;;;;;;;1.99;82.43;101406.44;4942818;28;20302;-61
2022/10/07 11:40:37;;;;;;;14.15;7.63;;;;;;;2.03;82.33;101398.88;4989439;28;20139;-61
2022/10/07 11:43:34;;;;;;;15.18;7.53;;;;;;;2.02;82.35;101393.66;4956313;28;20063;-62
2022/10/07 11:46:39;;;;;;;15.10;7.00;;;;;;;2.03;81.72;101398.00;4937647;28;20103;-62
2022/10/07 11:52:35;;;;;;;10.82;5.95;;;;;;;2.14;82.49;101396.69;4904873;28;20115;-62
2022/10/07 11:55:29;;;;;;;12.45;7.55;;;;;;;2.21;82.42;101408.97;4926274;28;20048;-61
2022/10/07 11:58:54;;;;;;;14.40;7.28;;;;;;;2.26;82.10;101404.88;4880928;28;20036;-62
2022/10/07 12:05:56;;;;;;;38.10;17.35;;;;;;;2.38;83.08;101422.50;5080117;28;20043;-61
2022/10/07 12:17:15;;;;;;;37.28;15.05;;;;;;;2.44;83.34;101427.84;5017586;28;20057;-61
2022/10/07 12:20:44;;;;;;;27.38;13.32;;;;;;;2.44;82.77;101433.00;4976511;28;20066;-61
2022/10/07 12:24:27;;;;;;;24.80;12.85;;;;;;;2.45;81.68;101433.91;4977142;28;20057;-61
2022/10/07 12:27:14;;;;;;;29.48;13.23;;;;;;;2.41;81.06;101422.59;4980445;28;20054;-61
2022/10/07 12:30:07;;;;;;;28.20;13.10;;;;;;;2.46;81.76;101436.53;4951088;28;20050;-62
2022/10/07 12:33:13;;;;;;;33.05;15.27;;;;;;;2.53;81.51;101448.81;4935212;28;20143;-61
2022/10/07 12:36:30;;;;;;;34.50;15.95;;;;;;;2.56;81.25;101454.09;4978750;28;20224;-61
2022/10/07 12:39:42;;;;;;;28.77;14.77;;;;;;;2.63;80.96;101459.47;4919212;29;20103;-62
2022/10/07 12:42:33;;;;;;;33.22;12.20;;;;;;;2.64;80.50;101456.06;4878545;29;20238;-61
2022/10/07 12:45:28;;;;;;;;;;;;;;;2.66;80.47;101450.13;4878139;29;20047;-61
2022/10/07 12:48:40;;;;;;;14.52;8.63;;;;;;;2.71;79.92;101447.72;4923253;29;19994;-61
2022/10/07 12:51:26;;;;;;;19.75;9.65;;;;;;;2.73;79.23;101456.38;4949615;28;20109;-62
2022/10/07 12:54:00;;;;;;;14.63;7.07;;;;;;;2.68;78.38;101451.06;4994885;28;20050;-62
2022/10/07 12:56:47;;;;;;;9.43;5.05;;;;;;;2.62;77.90;101452.53;4999861;28;20046;-62
2022/10/07 12:59:49;;;;;;;10.60;5.18;;;;;;;2.57;78.23;101445.53;4999488;28;20346;-62
2022/10/07 13:03:03;;;;;;;6.10;4.10;;;;;;;2.53;78.58;101443.66;4998758;28;20050;-61
2022/10/07 13:13:33;;;;;;;8.20;2.80;;;;;;;2.26;79.17;101458.16;4925536;29;20071;-62
2022/10/07 13:16:26;;;;;;;4.95;2.60;;;;;;;2.21;78.85;101449.38;4938568;29;20109;-61
2022/10/07 13:19:31;;;;;;;5.72;2.70;;;;;;;2.24;78.55;101459.78;4946901;29;20052;-61
2022/10/07 13:29:47;;;;;;;6.28;2.60;;;;;;;1.92;79.71;101456.88;4961126;29;20057;-61
2022/10/07 13:33:43;;;;;;;4.82;3.17;;;;;;;1.87;80.08;101459.31;4960437;29;20062;-62
2022/10/07 13:37:00;;;;;;;7.95;2.40;;;;;;;1.76;79.37;101439.09;4954113;29;20319;-61
2022/10/07 13:40:41;;;;;;;3.70;2.50;;;;;;;1.61;79.04;101445.41;4959963;29;20056;-61
2022/10/07 13:43:40;;;;;;;9.70;4.40;;;;;;;1.42;79.09;101448.06;4948693;29;20059;-61
2022/10/07 13:46:24;;;;;;;7.82;3.30;;;;;;;1.38;79.59;101451.38;4958927;28;20401;-60
2022/10/07 13:49:20;;;;;;;5.10;2.70;;;;;;;1.36;79.20;101453.00;4984691;28;20284;-61
2022/10/07 13:52:07;;;;;;;6.25;3.03;;;;;;;1.33;79.77;101437.44;5005044;28;20062;-60
2022/10/07 13:54:56;;;;;;;3.97;2.20;;;;;;;1.35;79.37;101443.50;4993815;28;20063;-60
2022/10/07 13:57:43;;;;;;;4.10;2.65;;;;;;;1.25;79.22;101445.72;5076130;28;20111;-60
2022/10/07 14:00:26;;;;;;;6.28;3.28;;;;;;;1.14;79.67;101436.66;5053158;28;20086;-60
2022/10/07 14:03:16;;;;;;;4.68;2.53;;;;;;;1.00;79.89;101437.78;5104131;28;20127;-60
2022/10/07 14:06:10;;;;;;;7.63;2.85;;;;;;;0.88;80.42;101445.03;5097981;28;20040;-60
2022/10/07 14:08:55;;;;;;;5.88;3.50;;;;;;;0.83;81.08;101445.72;5106837;28;20078;-60
2022/10/07 14:11:40;;;;;;;14.40;7.85;;;;;;;0.80;81.31;101445.59;5088118;28;20052;-60
2022/10/07 14:14:32;;;;;;;12.45;5.85;;;;;;;0.62;82.15;101444.78;5088741;28;20123;-61
2022/10/07 14:17:43;;;;;;;8.93;4.50;;;;;;;0.65;82.37;101414.06;5105947;28;20064;-61
2022/10/07 14:20:30;;;;;;;15.98;8.63;;;;;;;0.71;82.75;101404.03;5087045;28;20040;-60
2022/10/07 14:23:37;;;;;;;8.55;3.65;;;;;;;0.85;82.70;101435.50;5104675;28;20067;-61
2022/10/07 14:29:36;;;;;;;7.70;4.03;;;;;;;0.69;82.70;101420.22;5105376;28;20062;-61
2022/10/07 14:35:47;;;;;;;16.83;8.00;;;;;;;0.66;83.74;101431.25;5105997;28;20048;-60
2022/10/07 14:38:34;;;;;;;5.93;3.90;;;;;;;0.63;84.05;101415.69;5080245;28;20052;-60
2022/10/07 14:41:13;;;;;;;6.47;2.95;;;;;;;0.62;84.48;101424.22;5105838;28;20074;-60
2022/10/07 14:43:58;;;;;;;5.82;2.92;;;;;;;0.75;85.41;101439.38;5104985;28;20052;-61
2022/10/07 14:46:38;;;;;;;6.43;2.85;;;;;;;0.73;85.18;101433.28;5074350;28;20150;-60
2022/10/07 14:49:16;;;;;;;6.85;3.08;;;;;;;0.72;85.03;101431.50;5105866;28;20060;-61
2022/10/07 14:51:55;;;;;;;6.57;2.80;;;;;;;0.75;85.14;101430.75;5102865;28;20059;-61
2022/10/07 14:54:57;;;;;;;7.57;3.20;;;;;;;0.71;85.43;101416.88;5105868;28;20044;-61
2022/10/07 14:57:35;;;;;;;7.32;3.25;;;;;;;0.77;84.89;101434.28;5072682;28;20051;-61
2022/10/07 15:00:21;;;;;;;5.38;2.50;;;;;;;0.74;84.94;101440.16;5105638;28;20098;-60
2022/10/07 15:03:05;;;;;;;3.42;2.28;;;;;;;0.75;85.02;101436.78;5105380;28;20063;-60
2022/10/07 15:06:00;;;;;;;9.43;2.50;;;;;;;0.75;84.90;101441.94;5053578;28;20044;-60
2022/10/07 15:08:32;;;;;;;15.70;3.83;;;;;;;0.71;84.94;101439.16;5105199;28;20048;-61
2022/10/07 15:11:22;;;;;;;21.35;2.97;;;;;;;0.67;85.36;101453.56;5104942;28;20076;-60
2022/10/07 15:17:02;;;;;;;6.18;2.40;;;;;;;0.60;84.93;101436.13;5075793;28;20497;-61
2022/10/07 15:19:44;;;;;;;9.00;2.88;;;;;;;0.52;84.57;101432.34;5105183;28;20052;-61
2022/10/07 15:22:35;;;;;;;5.07;3.13;;;;;;;0.44;84.47;101442.31;5104513;28;20040;-61
2022/10/07 15:25:19;;;;;;;8.27;3.35;;;;;;;-0.01;84.77;101367.50;5087191;28;20044;-61
2022/10/07 15:28:28;;;;;;;4.35;2.50;;;;;;;0.42;84.61;101437.13;5086272;28;20056;-61
2022/10/07 15:31:16;;;;;;;5.40;3.13;;;;;;;-0.17;84.69;101342.84;5104738;28;20048;-60
2022/10/07 15:34:00;;;;;;;8.75;3.00;;;;;;;0.39;84.96;101431.81;5104783;28;20115;-60
2022/10/07 15:39:30;;;;;;;5.38;2.90;;;;;;;0.34;84.66;101435.88;5104570;28;20074;-60
2022/10/07 15:42:28;;;;;;;7.00;2.50;;;;;;;0.29;84.31;101439.06;5104589;28;20079;-60